sensor_id;sensor_type;location;lat;lon;timestamp;P1;durP1;ratioP1;P2;durP2;ratioP2
79220;SDS011;68648;52.114;5.424;2023-06-04T00:00:18;2.90;;;0.70;;
79220;SDS011;68648;52.114;5.424;2023-06-04T00:02:45;5.68;;;1.33;;
79220;SDS011;68648;52.114;5.424;2023-06-04T00:05:12;4.57;;;1.23;;
79220;SDS011;68648;52.114;5.424;2023-06-04T00:07:38;3.65;;;0.85;;
79220;SDS011;68648;52.114;5.424;2023-06-04T00:10:05;3.70;;;0.50;;
79220;SDS011;68648;52.114;5.424;2023-06-04T00:12:32;2.88;;;0.60;;
79220;SDS011;68648;52.114;5.424;2023-06-04T00:14:59;4.05;;;0.80;;
79220;SDS011;68648;52.114;5.424;2023-06-04T00:17:26;2.97;;;0.60;;
79220;SDS011;68648;52.114;5.424;2023-06-04T00:19:52;4.43;;;0.80;;
79220;SDS011;68648;52.114;5.424;2023-06-04T00:22:19;3.05;;;0.70;;
79220;SDS011;68648;52.114;5.424;2023-06-04T00:24:46;3.60;;;1.08;;
79220;SDS011;68648;52.114;5.424;2023-06-04T00:27:12;4.78;;;0.93;;
79220;SDS011;68648;52.114;5.424;2023-06-04T00:29:41;4.32;;;1.23;;
79220;SDS011;68648;52.114;5.424;2023-06-04T00:32:10;5.07;;;1.15;;
79220;SDS011;68648;52.114;5.424;2023-06-04T00:34:39;4.70;;;1.48;;
79220;SDS011;68648;52.114;5.424;2023-06-04T00:37:06;5.22;;;1.85;;
79220;SDS011;68648;52.114;5.424;2023-06-04T00:39:33;7.35;;;2.85;;
79220;SDS011;68648;52.114;5.424;2023-06-04T00:42:00;6.78;;;1.75;;
79220;SDS011;68648;52.114;5.424;2023-06-04T00:44:27;4.40;;;1.40;;
79220;SDS011;68648;52.114;5.424;2023-06-04T00:46:54;4.47;;;1.50;;
79220;SDS011;68648;52.114;5.424;2023-06-04T00:49:21;6.25;;;1.55;;
79220;SDS011;68648;52.114;5.424;2023-06-04T00:51:48;4.25;;;1.15;;
79220;SDS011;68648;52.114;5.424;2023-06-04T00:54:15;3.70;;;0.95;;
79220;SDS011;68648;52.114;5.424;2023-06-04T00:56:42;5.82;;;1.10;;
79220;SDS011;68648;52.114;5.424;2023-06-04T00:59:09;3.88;;;0.90;;
79220;SDS011;68648;52.114;5.424;2023-06-04T01:04:34;3.80;;;0.98;;
79220;SDS011;68648;52.114;5.424;2023-06-04T01:07:09;3.30;;;0.75;;
79220;SDS011;68648;52.114;5.424;2023-06-04T01:09:39;3.63;;;1.15;;
79220;SDS011;68648;52.114;5.424;2023-06-04T01:12:06;3.13;;;0.80;;
79220;SDS011;68648;52.114;5.424;2023-06-04T01:14:33;6.05;;;0.85;;
79220;SDS011;68648;52.114;5.424;2023-06-04T01:17:23;4.40;;;0.77;;
79220;SDS011;68648;52.114;5.424;2023-06-04T01:23:05;5.18;;;0.80;;
79220;SDS011;68648;52.114;5.424;2023-06-04T01:25:38;3.97;;;0.88;;
79220;SDS011;68648;52.114;5.424;2023-06-04T01:28:06;5.60;;;0.68;;
79220;SDS011;68648;52.114;5.424;2023-06-04T01:30:35;4.07;;;0.70;;
79220;SDS011;68648;52.114;5.424;2023-06-04T01:33:10;5.75;;;0.70;;
79220;SDS011;68648;52.114;5.424;2023-06-04T01:35:37;2.55;;;0.60;;
79220;SDS011;68648;52.114;5.424;2023-06-04T01:38:04;3.03;;;0.90;;
79220;SDS011;68648;52.114;5.424;2023-06-04T01:40:31;6.13;;;0.98;;
79220;SDS011;68648;52.114;5.424;2023-06-04T01:42:58;3.90;;;0.60;;
79220;SDS011;68648;52.114;5.424;2023-06-04T01:45:26;5.78;;;0.88;;
79220;SDS011;68648;52.114;5.424;2023-06-04T01:47:54;5.18;;;0.80;;
79220;SDS011;68648;52.114;5.424;2023-06-04T01:50:21;3.10;;;0.82;;
79220;SDS011;68648;52.114;5.424;2023-06-04T01:52:48;4.80;;;1.17;;
79220;SDS011;68648;52.114;5.424;2023-06-04T01:55:16;6.57;;;0.80;;
79220;SDS011;68648;52.114;5.424;2023-06-04T01:57:43;4.22;;;1.17;;
79220;SDS011;68648;52.114;5.424;2023-06-04T02:00:11;3.33;;;0.60;;
79220;SDS011;68648;52.114;5.424;2023-06-04T02:02:39;3.85;;;0.80;;
79220;SDS011;68648;52.114;5.424;2023-06-04T02:05:10;3.35;;;0.88;;
79220;SDS011;68648;52.114;5.424;2023-06-04T02:07:38;4.05;;;0.70;;
79220;SDS011;68648;52.114;5.424;2023-06-04T02:10:08;5.38;;;0.70;;
79220;SDS011;68648;52.114;5.424;2023-06-04T02:12:37;5.07;;;0.75;;
79220;SDS011;68648;52.114;5.424;2023-06-04T02:15:05;4.25;;;0.88;;
79220;SDS011;68648;52.114;5.424;2023-06-04T02:17:33;3.05;;;0.77;;
79220;SDS011;68648;52.114;5.424;2023-06-04T02:20:09;3.58;;;1.27;;
79220;SDS011;68648;52.114;5.424;2023-06-04T02:22:38;4.50;;;1.52;;
79220;SDS011;68648;52.114;5.424;2023-06-04T02:25:05;4.85;;;1.25;;
79220;SDS011;68648;52.114;5.424;2023-06-04T02:27:35;4.70;;;1.00;;
79220;SDS011;68648;52.114;5.424;2023-06-04T02:30:02;3.83;;;0.82;;
79220;SDS011;68648;52.114;5.424;2023-06-04T02:32:30;4.40;;;1.50;;
79220;SDS011;68648;52.114;5.424;2023-06-04T02:34:56;2.90;;;0.80;;
79220;SDS011;68648;52.114;5.424;2023-06-04T02:37:23;6.03;;;2.05;;
79220;SDS011;68648;52.114;5.424;2023-06-04T02:39:49;7.63;;;1.20;;
79220;SDS011;68648;52.114;5.424;2023-06-04T02:42:16;3.70;;;0.90;;
79220;SDS011;68648;52.114;5.424;2023-06-04T02:44:43;4.38;;;1.08;;
79220;SDS011;68648;52.114;5.424;2023-06-04T02:47:09;6.75;;;1.15;;
79220;SDS011;68648;52.114;5.424;2023-06-04T02:49:36;5.03;;;1.00;;
79220;SDS011;68648;52.114;5.424;2023-06-04T02:52:02;4.60;;;1.00;;
79220;SDS011;68648;52.114;5.424;2023-06-04T02:54:29;6.22;;;0.98;;
79220;SDS011;68648;52.114;5.424;2023-06-04T02:56:56;6.35;;;1.77;;
79220;SDS011;68648;52.114;5.424;2023-06-04T02:59:22;4.93;;;1.27;;
79220;SDS011;68648;52.114;5.424;2023-06-04T03:01:49;5.22;;;1.25;;
79220;SDS011;68648;52.114;5.424;2023-06-04T03:04:16;4.03;;;0.90;;
79220;SDS011;68648;52.114;5.424;2023-06-04T03:06:44;4.60;;;1.13;;
79220;SDS011;68648;52.114;5.424;2023-06-04T03:09:11;4.68;;;1.13;;
79220;SDS011;68648;52.114;5.424;2023-06-04T03:11:38;4.47;;;0.70;;
79220;SDS011;68648;52.114;5.424;2023-06-04T03:14:05;4.88;;;0.75;;
79220;SDS011;68648;52.114;5.424;2023-06-04T03:16:32;3.67;;;1.08;;
79220;SDS011;68648;52.114;5.424;2023-06-04T03:18:59;3.70;;;0.93;;
79220;SDS011;68648;52.114;5.424;2023-06-04T03:21:26;4.78;;;1.05;;
79220;SDS011;68648;52.114;5.424;2023-06-04T03:23:55;4.13;;;1.23;;
79220;SDS011;68648;52.114;5.424;2023-06-04T03:26:23;5.13;;;1.40;;
79220;SDS011;68648;52.114;5.424;2023-06-04T03:28:50;4.35;;;0.80;;
79220;SDS011;68648;52.114;5.424;2023-06-04T03:31:17;6.50;;;1.40;;
79220;SDS011;68648;52.114;5.424;2023-06-04T03:33:44;8.35;;;1.60;;
79220;SDS011;68648;52.114;5.424;2023-06-04T03:36:11;6.13;;;1.90;;
79220;SDS011;68648;52.114;5.424;2023-06-04T03:38:38;6.00;;;1.45;;
79220;SDS011;68648;52.114;5.424;2023-06-04T03:41:04;4.25;;;1.20;;
79220;SDS011;68648;52.114;5.424;2023-06-04T03:43:31;4.82;;;1.00;;
79220;SDS011;68648;52.114;5.424;2023-06-04T03:45:58;5.32;;;1.38;;
79220;SDS011;68648;52.114;5.424;2023-06-04T03:48:25;4.65;;;1.23;;
79220;SDS011;68648;52.114;5.424;2023-06-04T03:50:51;4.97;;;1.20;;
79220;SDS011;68648;52.114;5.424;2023-06-04T03:53:18;6.95;;;1.42;;
79220;SDS011;68648;52.114;5.424;2023-06-04T03:55:44;5.72;;;1.13;;
79220;SDS011;68648;52.114;5.424;2023-06-04T03:58:11;4.50;;;1.38;;
79220;SDS011;68648;52.114;5.424;2023-06-04T04:00:38;5.13;;;0.93;;
79220;SDS011;68648;52.114;5.424;2023-06-04T04:03:04;4.78;;;1.42;;
79220;SDS011;68648;52.114;5.424;2023-06-04T04:05:37;4.10;;;1.45;;
79220;SDS011;68648;52.114;5.424;2023-06-04T04:08:07;13.27;;;1.75;;
79220;SDS011;68648;52.114;5.424;2023-06-04T04:10:35;6.40;;;1.50;;
79220;SDS011;68648;52.114;5.424;2023-06-04T04:13:03;4.80;;;1.20;;
79220;SDS011;68648;52.114;5.424;2023-06-04T04:15:29;4.60;;;1.10;;
79220;SDS011;68648;52.114;5.424;2023-06-04T04:17:56;4.40;;;1.20;;
79220;SDS011;68648;52.114;5.424;2023-06-04T04:20:24;9.15;;;1.73;;
79220;SDS011;68648;52.114;5.424;2023-06-04T04:22:54;6.63;;;1.10;;
79220;SDS011;68648;52.114;5.424;2023-06-04T04:25:21;7.50;;;1.40;;
79220;SDS011;68648;52.114;5.424;2023-06-04T04:27:48;6.05;;;1.95;;
79220;SDS011;68648;52.114;5.424;2023-06-04T04:30:15;5.38;;;1.40;;
79220;SDS011;68648;52.114;5.424;2023-06-04T04:32:42;6.63;;;1.48;;
79220;SDS011;68648;52.114;5.424;2023-06-04T04:35:15;6.32;;;1.60;;
79220;SDS011;68648;52.114;5.424;2023-06-04T04:37:44;4.82;;;1.40;;
79220;SDS011;68648;52.114;5.424;2023-06-04T04:40:12;5.18;;;1.65;;
79220;SDS011;68648;52.114;5.424;2023-06-04T04:42:38;7.47;;;1.75;;
79220;SDS011;68648;52.114;5.424;2023-06-04T04:45:05;7.22;;;1.42;;
79220;SDS011;68648;52.114;5.424;2023-06-04T04:47:35;5.03;;;1.35;;
79220;SDS011;68648;52.114;5.424;2023-06-04T04:50:02;6.60;;;1.98;;
79220;SDS011;68648;52.114;5.424;2023-06-04T04:52:29;8.10;;;1.35;;
79220;SDS011;68648;52.114;5.424;2023-06-04T04:54:56;6.18;;;1.73;;
79220;SDS011;68648;52.114;5.424;2023-06-04T04:57:25;5.85;;;1.73;;
79220;SDS011;68648;52.114;5.424;2023-06-04T04:59:51;4.60;;;1.45;;
79220;SDS011;68648;52.114;5.424;2023-06-04T05:02:18;7.40;;;1.70;;
79220;SDS011;68648;52.114;5.424;2023-06-04T05:04:45;6.45;;;1.65;;
79220;SDS011;68648;52.114;5.424;2023-06-04T05:07:11;5.22;;;1.70;;
79220;SDS011;68648;52.114;5.424;2023-06-04T05:09:39;7.25;;;2.38;;
79220;SDS011;68648;52.114;5.424;2023-06-04T05:12:06;6.05;;;1.80;;
79220;SDS011;68648;52.114;5.424;2023-06-04T05:14:33;5.55;;;1.73;;
79220;SDS011;68648;52.114;5.424;2023-06-04T05:17:07;6.55;;;1.70;;
79220;SDS011;68648;52.114;5.424;2023-06-04T05:19:37;7.00;;;1.90;;
79220;SDS011;68648;52.114;5.424;2023-06-04T05:22:05;6.28;;;2.03;;
79220;SDS011;68648;52.114;5.424;2023-06-04T05:24:35;6.22;;;1.50;;
79220;SDS011;68648;52.114;5.424;2023-06-04T05:27:02;5.20;;;1.42;;
79220;SDS011;68648;52.114;5.424;2023-06-04T05:29:30;6.10;;;1.55;;
79220;SDS011;68648;52.114;5.424;2023-06-04T05:32:00;7.22;;;2.15;;
79220;SDS011;68648;52.114;5.424;2023-06-04T05:34:27;5.78;;;1.85;;
79220;SDS011;68648;52.114;5.424;2023-06-04T05:36:54;7.07;;;1.67;;
79220;SDS011;68648;52.114;5.424;2023-06-04T05:39:25;6.47;;;1.63;;
79220;SDS011;68648;52.114;5.424;2023-06-04T05:41:52;7.05;;;2.08;;
79220;SDS011;68648;52.114;5.424;2023-06-04T05:44:19;7.05;;;2.05;;
79220;SDS011;68648;52.114;5.424;2023-06-04T05:46:47;8.70;;;1.23;;
79220;SDS011;68648;52.114;5.424;2023-06-04T05:49:14;5.93;;;1.95;;
79220;SDS011;68648;52.114;5.424;2023-06-04T05:51:41;5.53;;;1.85;;
79220;SDS011;68648;52.114;5.424;2023-06-04T05:54:07;7.00;;;2.10;;
79220;SDS011;68648;52.114;5.424;2023-06-04T05:56:34;5.97;;;1.73;;
79220;SDS011;68648;52.114;5.424;2023-06-04T05:59:00;5.45;;;1.80;;
79220;SDS011;68648;52.114;5.424;2023-06-04T06:01:27;5.82;;;1.70;;
79220;SDS011;68648;52.114;5.424;2023-06-04T06:03:54;4.68;;;1.35;;
79220;SDS011;68648;52.114;5.424;2023-06-04T06:06:21;6.13;;;1.80;;
79220;SDS011;68648;52.114;5.424;2023-06-04T06:08:48;5.22;;;1.30;;
79220;SDS011;68648;52.114;5.424;2023-06-04T06:11:16;7.72;;;2.03;;
79220;SDS011;68648;52.114;5.424;2023-06-04T06:13:42;5.22;;;1.33;;
79220;SDS011;68648;52.114;5.424;2023-06-04T06:16:08;5.90;;;2.03;;
79220;SDS011;68648;52.114;5.424;2023-06-04T06:18:35;4.93;;;1.83;;
79220;SDS011;68648;52.114;5.424;2023-06-04T06:21:02;6.38;;;1.70;;
79220;SDS011;68648;52.114;5.424;2023-06-04T06:23:28;6.20;;;1.27;;
79220;SDS011;68648;52.114;5.424;2023-06-04T06:25:55;4.22;;;1.33;;
79220;SDS011;68648;52.114;5.424;2023-06-04T06:28:21;6.75;;;1.63;;
79220;SDS011;68648;52.114;5.424;2023-06-04T06:30:48;6.53;;;1.85;;
79220;SDS011;68648;52.114;5.424;2023-06-04T06:33:15;5.60;;;1.48;;
79220;SDS011;68648;52.114;5.424;2023-06-04T06:35:42;7.63;;;1.40;;
79220;SDS011;68648;52.114;5.424;2023-06-04T06:38:09;5.47;;;1.20;;
79220;SDS011;68648;52.114;5.424;2023-06-04T06:40:36;5.60;;;1.48;;
79220;SDS011;68648;52.114;5.424;2023-06-04T06:43:02;5.90;;;1.20;;
79220;SDS011;68648;52.114;5.424;2023-06-04T06:45:29;8.80;;;1.63;;
79220;SDS011;68648;52.114;5.424;2023-06-04T06:47:55;4.45;;;1.45;;
79220;SDS011;68648;52.114;5.424;2023-06-04T06:50:22;5.88;;;1.50;;
79220;SDS011;68648;52.114;5.424;2023-06-04T06:52:49;4.53;;;1.80;;
79220;SDS011;68648;52.114;5.424;2023-06-04T06:55:17;4.82;;;1.63;;
79220;SDS011;68648;52.114;5.424;2023-06-04T06:57:44;5.00;;;1.52;;
79220;SDS011;68648;52.114;5.424;2023-06-04T07:00:11;5.40;;;1.63;;
79220;SDS011;68648;52.114;5.424;2023-06-04T07:02:38;6.03;;;1.40;;
79220;SDS011;68648;52.114;5.424;2023-06-04T07:05:04;7.25;;;1.00;;
79220;SDS011;68648;52.114;5.424;2023-06-04T07:07:31;5.18;;;1.40;;
79220;SDS011;68648;52.114;5.424;2023-06-04T07:09:58;5.85;;;1.05;;
79220;SDS011;68648;52.114;5.424;2023-06-04T07:12:25;5.53;;;1.48;;
79220;SDS011;68648;52.114;5.424;2023-06-04T07:14:51;5.97;;;1.45;;
79220;SDS011;68648;52.114;5.424;2023-06-04T07:17:20;4.95;;;1.20;;
79220;SDS011;68648;52.114;5.424;2023-06-04T07:19:47;6.15;;;1.60;;
79220;SDS011;68648;52.114;5.424;2023-06-04T07:22:17;5.50;;;1.73;;
79220;SDS011;68648;52.114;5.424;2023-06-04T07:24:43;6.38;;;1.20;;
79220;SDS011;68648;52.114;5.424;2023-06-04T07:27:14;4.28;;;1.58;;
79220;SDS011;68648;52.114;5.424;2023-06-04T07:29:42;7.47;;;1.40;;
79220;SDS011;68648;52.114;5.424;2023-06-04T07:32:10;3.65;;;1.00;;
79220;SDS011;68648;52.114;5.424;2023-06-04T07:34:40;5.60;;;1.60;;
79220;SDS011;68648;52.114;5.424;2023-06-04T07:37:09;5.47;;;1.15;;
79220;SDS011;68648;52.114;5.424;2023-06-04T07:39:36;5.05;;;0.90;;
79220;SDS011;68648;52.114;5.424;2023-06-04T07:42:04;4.38;;;1.38;;
79220;SDS011;68648;52.114;5.424;2023-06-04T07:44:32;5.55;;;1.40;;
79220;SDS011;68648;52.114;5.424;2023-06-04T07:46:58;4.68;;;1.58;;
79220;SDS011;68648;52.114;5.424;2023-06-04T07:49:25;6.35;;;1.35;;
79220;SDS011;68648;52.114;5.424;2023-06-04T07:51:52;5.10;;;1.23;;
79220;SDS011;68648;52.114;5.424;2023-06-04T07:54:19;6.82;;;1.48;;
79220;SDS011;68648;52.114;5.424;2023-06-04T07:56:46;5.40;;;1.20;;
79220;SDS011;68648;52.114;5.424;2023-06-04T07:59:12;8.27;;;1.50;;
79220;SDS011;68648;52.114;5.424;2023-06-04T08:01:40;4.22;;;1.10;;
79220;SDS011;68648;52.114;5.424;2023-06-04T08:04:07;5.47;;;1.35;;
79220;SDS011;68648;52.114;5.424;2023-06-04T08:06:34;6.13;;;1.30;;
79220;SDS011;68648;52.114;5.424;2023-06-04T08:09:01;4.75;;;0.90;;
79220;SDS011;68648;52.114;5.424;2023-06-04T08:11:28;5.25;;;0.75;;
79220;SDS011;68648;52.114;5.424;2023-06-04T08:13:55;5.32;;;1.00;;
79220;SDS011;68648;52.114;5.424;2023-06-04T08:16:22;4.78;;;0.90;;
79220;SDS011;68648;52.114;5.424;2023-06-04T08:18:48;5.10;;;1.05;;
79220;SDS011;68648;52.114;5.424;2023-06-04T08:21:24;3.92;;;1.20;;
79220;SDS011;68648;52.114;5.424;2023-06-04T08:23:52;5.90;;;0.93;;
79220;SDS011;68648;52.114;5.424;2023-06-04T08:26:19;4.68;;;1.10;;
79220;SDS011;68648;52.114;5.424;2023-06-04T08:28:49;3.97;;;0.93;;
79220;SDS011;68648;52.114;5.424;2023-06-04T08:31:17;4.75;;;1.63;;
79220;SDS011;68648;52.114;5.424;2023-06-04T08:33:46;4.05;;;1.08;;
79220;SDS011;68648;52.114;5.424;2023-06-04T08:36:14;4.50;;;0.90;;
79220;SDS011;68648;52.114;5.424;2023-06-04T08:38:42;3.78;;;0.80;;
79220;SDS011;68648;52.114;5.424;2023-06-04T08:41:15;5.65;;;1.20;;
79220;SDS011;68648;52.114;5.424;2023-06-04T08:43:45;5.40;;;0.68;;
79220;SDS011;68648;52.114;5.424;2023-06-04T08:46:15;4.13;;;1.05;;
79220;SDS011;68648;52.114;5.424;2023-06-04T08:48:44;5.55;;;1.00;;
79220;SDS011;68648;52.114;5.424;2023-06-04T08:51:11;5.20;;;1.00;;
79220;SDS011;68648;52.114;5.424;2023-06-04T08:53:37;3.83;;;0.98;;
79220;SDS011;68648;52.114;5.424;2023-06-04T08:56:04;5.65;;;1.35;;
79220;SDS011;68648;52.114;5.424;2023-06-04T08:58:31;3.30;;;1.05;;
79220;SDS011;68648;52.114;5.424;2023-06-04T09:01:00;4.18;;;1.02;;
79220;SDS011;68648;52.114;5.424;2023-06-04T09:03:27;3.92;;;1.15;;
79220;SDS011;68648;52.114;5.424;2023-06-04T09:05:58;4.43;;;1.40;;
79220;SDS011;68648;52.114;5.424;2023-06-04T09:08:26;5.57;;;1.08;;
79220;SDS011;68648;52.114;5.424;2023-06-04T09:10:53;4.00;;;1.00;;
79220;SDS011;68648;52.114;5.424;2023-06-04T09:13:21;3.60;;;0.93;;
79220;SDS011;68648;52.114;5.424;2023-06-04T09:16:03;3.95;;;0.90;;
79220;SDS011;68648;52.114;5.424;2023-06-04T09:18:32;4.43;;;1.13;;
79220;SDS011;68648;52.114;5.424;2023-06-04T09:21:06;4.90;;;1.38;;
79220;SDS011;68648;52.114;5.424;2023-06-04T09:23:44;5.47;;;1.83;;
79220;SDS011;68648;52.114;5.424;2023-06-04T09:26:13;4.07;;;0.80;;
79220;SDS011;68648;52.114;5.424;2023-06-04T09:28:45;4.15;;;1.30;;
79220;SDS011;68648;52.114;5.424;2023-06-04T09:31:15;3.70;;;0.75;;
79220;SDS011;68648;52.114;5.424;2023-06-04T09:33:45;4.20;;;1.48;;
79220;SDS011;68648;52.114;5.424;2023-06-04T09:36:12;3.80;;;0.85;;
79220;SDS011;68648;52.114;5.424;2023-06-04T09:38:41;4.65;;;0.77;;
79220;SDS011;68648;52.114;5.424;2023-06-04T09:41:11;4.07;;;1.00;;
79220;SDS011;68648;52.114;5.424;2023-06-04T09:43:39;3.63;;;0.95;;
79220;SDS011;68648;52.114;5.424;2023-06-04T09:46:13;4.63;;;1.00;;
79220;SDS011;68648;52.114;5.424;2023-06-04T09:48:46;4.93;;;1.52;;
79220;SDS011;68648;52.114;5.424;2023-06-04T09:53:56;5.30;;;0.93;;
79220;SDS011;68648;52.114;5.424;2023-06-04T09:56:24;4.72;;;1.08;;
79220;SDS011;68648;52.114;5.424;2023-06-04T09:58:54;3.53;;;1.00;;
79220;SDS011;68648;52.114;5.424;2023-06-04T10:01:28;4.68;;;1.10;;
79220;SDS011;68648;52.114;5.424;2023-06-04T10:03:57;4.38;;;0.90;;
79220;SDS011;68648;52.114;5.424;2023-06-04T10:06:27;3.80;;;0.65;;
79220;SDS011;68648;52.114;5.424;2023-06-04T10:08:59;6.10;;;1.17;;
79220;SDS011;68648;52.114;5.424;2023-06-04T10:11:47;3.97;;;1.58;;
79220;SDS011;68648;52.114;5.424;2023-06-04T10:14:25;5.30;;;1.23;;
79220;SDS011;68648;52.114;5.424;2023-06-04T10:16:57;4.10;;;1.10;;
79220;SDS011;68648;52.114;5.424;2023-06-04T10:19:26;5.82;;;0.90;;
79220;SDS011;68648;52.114;5.424;2023-06-04T10:21:55;6.68;;;1.17;;
79220;SDS011;68648;52.114;5.424;2023-06-04T10:24:22;4.15;;;1.23;;
79220;SDS011;68648;52.114;5.424;2023-06-04T10:26:51;7.63;;;1.27;;
79220;SDS011;68648;52.114;5.424;2023-06-04T10:29:21;5.15;;;1.17;;
79220;SDS011;68648;52.114;5.424;2023-06-04T10:31:54;5.03;;;1.10;;
79220;SDS011;68648;52.114;5.424;2023-06-04T10:34:21;4.90;;;0.90;;
79220;SDS011;68648;52.114;5.424;2023-06-04T10:36:48;4.47;;;1.30;;
79220;SDS011;68648;52.114;5.424;2023-06-04T10:39:24;3.83;;;1.65;;
79220;SDS011;68648;52.114;5.424;2023-06-04T10:41:59;4.28;;;1.23;;
79220;SDS011;68648;52.114;5.424;2023-06-04T10:44:30;2.95;;;0.57;;
79220;SDS011;68648;52.114;5.424;2023-06-04T10:46:57;5.00;;;0.47;;
79220;SDS011;68648;52.114;5.424;2023-06-04T10:49:27;4.45;;;1.10;;
79220;SDS011;68648;52.114;5.424;2023-06-04T10:51:55;4.85;;;1.08;;
79220;SDS011;68648;52.114;5.424;2023-06-04T10:54:29;4.97;;;1.50;;
79220;SDS011;68648;52.114;5.424;2023-06-04T10:56:56;5.25;;;1.27;;
79220;SDS011;68648;52.114;5.424;2023-06-04T10:59:22;5.40;;;1.25;;
79220;SDS011;68648;52.114;5.424;2023-06-04T11:01:50;10.32;;;1.08;;
79220;SDS011;68648;52.114;5.424;2023-06-04T11:04:24;6.35;;;1.00;;
79220;SDS011;68648;52.114;5.424;2023-06-04T11:07:04;4.80;;;0.93;;
79220;SDS011;68648;52.114;5.424;2023-06-04T11:09:37;4.85;;;1.17;;
79220;SDS011;68648;52.114;5.424;2023-06-04T11:12:04;5.47;;;1.10;;
79220;SDS011;68648;52.114;5.424;2023-06-04T11:14:32;4.70;;;0.52;;
79220;SDS011;68648;52.114;5.424;2023-06-04T11:17:08;8.32;;;1.48;;
79220;SDS011;68648;52.114;5.424;2023-06-04T11:19:36;3.60;;;1.05;;
79220;SDS011;68648;52.114;5.424;2023-06-04T11:22:04;4.05;;;0.65;;
79220;SDS011;68648;52.114;5.424;2023-06-04T11:24:32;3.45;;;1.58;;
79220;SDS011;68648;52.114;5.424;2023-06-04T11:26:59;4.03;;;1.42;;
79220;SDS011;68648;52.114;5.424;2023-06-04T11:29:48;3.92;;;1.75;;
79220;SDS011;68648;52.114;5.424;2023-06-04T11:32:23;5.38;;;1.10;;
79220;SDS011;68648;52.114;5.424;2023-06-04T11:35:01;4.10;;;0.88;;
79220;SDS011;68648;52.114;5.424;2023-06-04T11:37:30;7.65;;;1.27;;
79220;SDS011;68648;52.114;5.424;2023-06-04T11:39:59;5.47;;;1.80;;
79220;SDS011;68648;52.114;5.424;2023-06-04T11:42:31;5.40;;;1.08;;
79220;SDS011;68648;52.114;5.424;2023-06-04T11:44:58;5.28;;;1.05;;
79220;SDS011;68648;52.114;5.424;2023-06-04T11:47:28;4.47;;;0.70;;
79220;SDS011;68648;52.114;5.424;2023-06-04T11:49:56;4.13;;;1.15;;
79220;SDS011;68648;52.114;5.424;2023-06-04T11:52:23;3.40;;;1.00;;
79220;SDS011;68648;52.114;5.424;2023-06-04T11:54:53;3.15;;;1.02;;
79220;SDS011;68648;52.114;5.424;2023-06-04T11:57:21;3.67;;;0.90;;
79220;SDS011;68648;52.114;5.424;2023-06-04T11:59:48;2.97;;;0.98;;
79220;SDS011;68648;52.114;5.424;2023-06-04T12:02:15;3.40;;;1.25;;
79220;SDS011;68648;52.114;5.424;2023-06-04T12:04:44;5.30;;;0.93;;
79220;SDS011;68648;52.114;5.424;2023-06-04T12:07:11;5.43;;;1.10;;
79220;SDS011;68648;52.114;5.424;2023-06-04T12:09:47;3.45;;;1.38;;
79220;SDS011;68648;52.114;5.424;2023-06-04T12:12:14;5.38;;;1.83;;
79220;SDS011;68648;52.114;5.424;2023-06-04T12:14:41;4.68;;;1.02;;
79220;SDS011;68648;52.114;5.424;2023-06-04T12:17:11;5.80;;;1.35;;
79220;SDS011;68648;52.114;5.424;2023-06-04T12:19:49;5.30;;;1.83;;
79220;SDS011;68648;52.114;5.424;2023-06-04T12:22:17;3.92;;;1.20;;
79220;SDS011;68648;52.114;5.424;2023-06-04T12:24:46;4.78;;;1.40;;
79220;SDS011;68648;52.114;5.424;2023-06-04T12:27:22;3.70;;;0.80;;
79220;SDS011;68648;52.114;5.424;2023-06-04T12:30:00;6.05;;;2.22;;
79220;SDS011;68648;52.114;5.424;2023-06-04T12:32:28;10.30;;;2.00;;
79220;SDS011;68648;52.114;5.424;2023-06-04T12:34:55;4.60;;;1.60;;
79220;SDS011;68648;52.114;5.424;2023-06-04T12:37:23;3.95;;;1.88;;
79220;SDS011;68648;52.114;5.424;2023-06-04T12:39:52;4.65;;;2.10;;
79220;SDS011;68648;52.114;5.424;2023-06-04T12:42:21;5.28;;;1.98;;
79220;SDS011;68648;52.114;5.424;2023-06-04T12:44:51;4.68;;;3.25;;
79220;SDS011;68648;52.114;5.424;2023-06-04T12:47:18;4.30;;;1.85;;
79220;SDS011;68648;52.114;5.424;2023-06-04T12:49:47;5.22;;;2.00;;
79220;SDS011;68648;52.114;5.424;2023-06-04T12:52:16;5.88;;;2.10;;
79220;SDS011;68648;52.114;5.424;2023-06-04T12:54:45;5.88;;;2.60;;
79220;SDS011;68648;52.114;5.424;2023-06-04T12:57:12;7.03;;;2.95;;
79220;SDS011;68648;52.114;5.424;2023-06-04T12:59:40;5.35;;;2.83;;
79220;SDS011;68648;52.114;5.424;2023-06-04T13:02:09;4.97;;;2.03;;
79220;SDS011;68648;52.114;5.424;2023-06-04T13:04:37;4.35;;;2.20;;
79220;SDS011;68648;52.114;5.424;2023-06-04T13:07:04;5.47;;;2.08;;
79220;SDS011;68648;52.114;5.424;2023-06-04T13:09:31;4.45;;;2.70;;
79220;SDS011;68648;52.114;5.424;2023-06-04T13:12:01;4.82;;;1.45;;
79220;SDS011;68648;52.114;5.424;2023-06-04T13:14:30;5.05;;;2.47;;
79220;SDS011;68648;52.114;5.424;2023-06-04T13:17:00;6.18;;;2.42;;
79220;SDS011;68648;52.114;5.424;2023-06-04T13:19:46;4.68;;;3.13;;
79220;SDS011;68648;52.114;5.424;2023-06-04T13:22:20;6.28;;;1.52;;
79220;SDS011;68648;52.114;5.424;2023-06-04T13:24:48;4.95;;;2.25;;
79220;SDS011;68648;52.114;5.424;2023-06-04T13:27:17;5.13;;;2.20;;
79220;SDS011;68648;52.114;5.424;2023-06-04T13:29:44;5.85;;;2.55;;
79220;SDS011;68648;52.114;5.424;2023-06-04T13:32:11;6.90;;;2.50;;
79220;SDS011;68648;52.114;5.424;2023-06-04T13:34:40;5.97;;;2.75;;
79220;SDS011;68648;52.114;5.424;2023-06-04T13:37:08;6.13;;;2.58;;
79220;SDS011;68648;52.114;5.424;2023-06-04T13:39:37;4.28;;;2.40;;
79220;SDS011;68648;52.114;5.424;2023-06-04T13:42:05;5.25;;;2.75;;
79220;SDS011;68648;52.114;5.424;2023-06-04T13:44:33;4.47;;;1.85;;
79220;SDS011;68648;52.114;5.424;2023-06-04T13:47:03;7.15;;;3.40;;
79220;SDS011;68648;52.114;5.424;2023-06-04T13:49:34;6.15;;;2.22;;
79220;SDS011;68648;52.114;5.424;2023-06-04T13:52:02;4.93;;;2.13;;
79220;SDS011;68648;52.114;5.424;2023-06-04T13:54:30;5.50;;;2.33;;
79220;SDS011;68648;52.114;5.424;2023-06-04T13:57:01;5.28;;;2.53;;
79220;SDS011;68648;52.114;5.424;2023-06-04T13:59:29;5.15;;;2.38;;
79220;SDS011;68648;52.114;5.424;2023-06-04T14:01:59;4.00;;;2.15;;
79220;SDS011;68648;52.114;5.424;2023-06-04T14:04:28;5.03;;;2.47;;
79220;SDS011;68648;52.114;5.424;2023-06-04T14:06:55;5.55;;;2.10;;
79220;SDS011;68648;52.114;5.424;2023-06-04T14:09:23;7.88;;;2.42;;
79220;SDS011;68648;52.114;5.424;2023-06-04T14:11:51;5.55;;;2.78;;
79220;SDS011;68648;52.114;5.424;2023-06-04T14:14:20;5.22;;;2.15;;
79220;SDS011;68648;52.114;5.424;2023-06-04T14:16:48;5.68;;;2.13;;
79220;SDS011;68648;52.114;5.424;2023-06-04T14:19:15;6.75;;;2.72;;
79220;SDS011;68648;52.114;5.424;2023-06-04T14:21:43;4.03;;;2.15;;
79220;SDS011;68648;52.114;5.424;2023-06-04T14:24:11;4.60;;;2.63;;
79220;SDS011;68648;52.114;5.424;2023-06-04T14:26:39;4.68;;;1.83;;
79220;SDS011;68648;52.114;5.424;2023-06-04T14:29:08;5.55;;;1.55;;
79220;SDS011;68648;52.114;5.424;2023-06-04T14:31:37;6.55;;;1.73;;
79220;SDS011;68648;52.114;5.424;2023-06-04T14:34:04;5.78;;;2.40;;
79220;SDS011;68648;52.114;5.424;2023-06-04T14:36:34;5.07;;;2.17;;
79220;SDS011;68648;52.114;5.424;2023-06-04T14:39:03;5.18;;;1.88;;
79220;SDS011;68648;52.114;5.424;2023-06-04T14:41:31;7.10;;;2.08;;
79220;SDS011;68648;52.114;5.424;2023-06-04T14:43:59;5.18;;;2.28;;
79220;SDS011;68648;52.114;5.424;2023-06-04T14:46:26;6.60;;;2.03;;
79220;SDS011;68648;52.114;5.424;2023-06-04T14:48:55;4.50;;;2.03;;
79220;SDS011;68648;52.114;5.424;2023-06-04T14:51:24;5.22;;;2.03;;
79220;SDS011;68648;52.114;5.424;2023-06-04T14:53:54;5.72;;;2.00;;
79220;SDS011;68648;52.114;5.424;2023-06-04T14:56:21;7.05;;;2.35;;
79220;SDS011;68648;52.114;5.424;2023-06-04T14:58:49;5.43;;;1.17;;
79220;SDS011;68648;52.114;5.424;2023-06-04T15:01:18;4.53;;;1.85;;
79220;SDS011;68648;52.114;5.424;2023-06-04T15:04:04;5.03;;;2.08;;